createdAt,value
2023-03-18T00:02:02.216Z,3.57
2023-03-18T00:04:32.489Z,3.33
2023-03-18T00:07:02.245Z,3.67
2023-03-18T00:09:31.854Z,3.97
2023-03-18T00:12:03.230Z,3.70
2023-03-18T00:14:35.020Z,3.20
2023-03-18T00:17:04.923Z,3.30
2023-03-18T00:19:36.627Z,3.23
2023-03-18T00:22:08.646Z,3.23
2023-03-18T00:24:38.461Z,3.23
2023-03-18T00:27:10.914Z,3.33
2023-03-18T00:29:42.592Z,3.40
2023-03-18T00:32:12.656Z,3.40
2023-03-18T00:34:45.807Z,3.20
2023-03-18T00:37:21.759Z,3.13
2023-03-18T00:39:52.675Z,2.80
2023-03-18T00:42:24.568Z,3.10
2023-03-18T00:44:57.386Z,3.20
2023-03-18T00:47:27.812Z,3.07
2023-03-18T00:49:59.859Z,3.47
2023-03-18T00:52:36.302Z,3.57
2023-03-18T00:55:11.118Z,3.00
2023-03-18T00:57:42.972Z,3.30
2023-03-18T01:00:17.511Z,3.20
2023-03-18T01:02:50.000Z,3.20
2023-03-18T01:05:20.107Z,3.10
2023-03-18T01:07:50.224Z,3.10
2023-03-18T01:10:20.115Z,3.27
2023-03-18T01:12:52.677Z,3.30
2023-03-18T01:15:23.556Z,3.03
2023-03-18T01:17:57.619Z,3.03
2023-03-18T01:20:27.477Z,3.23
2023-03-18T01:22:57.863Z,3.50
2023-03-18T01:25:27.772Z,3.30
2023-03-18T01:28:02.137Z,3.40
2023-03-18T01:30:31.818Z,3.50
2023-03-18T01:33:01.987Z,3.43
2023-03-18T01:35:32.126Z,3.40
2023-03-18T01:38:04.889Z,3.50
2023-03-18T01:40:41.127Z,3.60
2023-03-18T01:43:19.363Z,3.97
2023-03-18T01:45:51.682Z,3.70
2023-03-18T01:48:28.712Z,3.67
2023-03-18T01:51:01.963Z,3.50
2023-03-18T01:53:43.325Z,4.00
2023-03-18T01:56:13.200Z,3.40
2023-03-18T01:58:48.792Z,3.90
2023-03-18T02:01:24.296Z,3.90
2023-03-18T02:03:54.979Z,3.60
2023-03-18T02:06:24.674Z,3.80
2023-03-18T02:08:55.759Z,3.97
2023-03-18T02:13:56.436Z,3.97
2023-03-18T02:16:29.607Z,4.40
2023-03-18T02:19:06.403Z,3.87
2023-03-18T02:21:46.115Z,3.70
2023-03-18T02:24:26.431Z,4.00
2023-03-18T02:26:59.960Z,3.90
2023-03-18T02:29:37.212Z,4.00
2023-03-18T02:32:08.110Z,3.93
2023-03-18T02:34:38.874Z,3.87
2023-03-18T02:37:08.030Z,3.80
2023-03-18T02:39:36.405Z,3.90
2023-03-18T02:44:48.770Z,3.87
2023-03-18T02:47:24.364Z,4.97
2023-03-18T02:49:52.802Z,4.27
2023-03-18T02:52:20.958Z,3.90
2023-03-18T02:54:48.984Z,4.07
2023-03-18T02:57:16.974Z,4.30
2023-03-18T02:59:45.366Z,4.00
2023-03-18T03:02:14.806Z,4.60
2023-03-18T03:04:43.379Z,4.73
2023-03-18T03:07:12.348Z,4.47
2023-03-18T03:09:41.884Z,4.30
2023-03-18T03:12:10.523Z,4.40
2023-03-18T03:14:38.582Z,4.83
2023-03-18T03:17:06.670Z,5.10
2023-03-18T03:19:36.025Z,4.87
2023-03-18T03:22:04.080Z,5.27
2023-03-18T03:24:32.120Z,4.90
2023-03-18T03:27:00.105Z,4.90
2023-03-18T03:29:28.126Z,4.43
2023-03-18T03:31:56.457Z,4.87
2023-03-18T03:34:24.950Z,4.80
2023-03-18T03:36:54.339Z,5.20
2023-03-18T03:39:22.401Z,5.03
2023-03-18T03:41:50.399Z,4.63
2023-03-18T03:44:18.429Z,4.70
2023-03-18T03:46:47.006Z,4.77
2023-03-18T03:49:18.390Z,4.60
2023-03-18T03:51:46.461Z,4.60
2023-03-18T03:54:16.726Z,5.13
2023-03-18T03:56:44.761Z,4.80
2023-03-18T03:59:12.899Z,5.07
2023-03-18T04:01:41.280Z,4.57
2023-03-18T04:04:09.335Z,5.50
2023-03-18T04:06:37.788Z,5.23
2023-03-18T04:09:06.480Z,5.20
2023-03-18T04:11:35.877Z,5.57
2023-03-18T04:14:03.846Z,5.20
2023-03-18T04:16:31.933Z,5.10
2023-03-18T04:18:59.946Z,5.57
2023-03-18T04:21:28.376Z,5.20
2023-03-18T04:23:56.589Z,5.17
2023-03-18T04:26:24.683Z,5.30
2023-03-18T04:28:54.043Z,4.83
2023-03-18T04:31:22.074Z,5.30
2023-03-18T04:33:50.131Z,5.60
2023-03-18T04:36:18.252Z,5.13
2023-03-18T04:38:46.376Z,5.47
2023-03-18T04:41:14.822Z,5.33
2023-03-18T04:43:43.438Z,5.47
2023-03-18T04:46:13.054Z,5.43
2023-03-18T04:48:41.715Z,5.03
2023-03-18T04:51:10.362Z,5.10
2023-03-18T04:53:39.078Z,5.50
2023-03-18T04:56:08.846Z,5.00
2023-03-18T04:58:36.890Z,5.40
2023-03-18T05:01:05.225Z,5.90
2023-03-18T05:03:34.633Z,5.80
2023-03-18T05:06:03.001Z,5.17
2023-03-18T05:08:31.015Z,5.53
2023-03-18T05:10:59.047Z,5.57
2023-03-18T05:13:27.070Z,5.50
2023-03-18T05:15:55.059Z,5.90
2023-03-18T05:18:23.027Z,6.00
2023-03-18T05:20:52.682Z,5.80
2023-03-18T05:23:21.142Z,5.67
2023-03-18T05:25:50.759Z,6.30
2023-03-18T05:28:19.290Z,6.20
2023-03-18T05:30:47.499Z,6.47
2023-03-18T05:33:15.940Z,6.40
2023-03-18T05:35:43.973Z,6.57
2023-03-18T05:38:13.632Z,6.17
2023-03-18T05:40:41.753Z,5.67
2023-03-18T05:43:10.395Z,6.73
2023-03-18T05:45:40.277Z,6.57
2023-03-18T05:48:08.725Z,7.13
2023-03-18T05:50:39.561Z,6.47
2023-03-18T05:53:08.481Z,6.73
2023-03-18T05:55:38.277Z,7.00
2023-03-18T05:58:06.346Z,7.23
2023-03-18T06:00:34.427Z,7.27
2023-03-18T06:03:02.942Z,7.63
2023-03-18T06:05:31.915Z,6.93
2023-03-18T06:08:01.360Z,7.83
2023-03-18T06:10:30.217Z,7.30
2023-03-18T06:13:00.259Z,7.13
2023-03-18T06:15:28.308Z,8.00
2023-03-18T06:17:56.358Z,7.80
2023-03-18T06:20:24.362Z,8.77
2023-03-18T06:22:52.411Z,7.87
2023-03-18T06:25:21.775Z,7.80
2023-03-18T06:27:49.975Z,7.87
2023-03-18T06:30:20.079Z,9.03
2023-03-18T06:32:48.233Z,8.47
2023-03-18T06:35:17.063Z,8.10
2023-03-18T06:37:45.068Z,9.30
2023-03-18T06:40:13.499Z,8.77
2023-03-18T06:42:42.199Z,9.03
2023-03-18T06:45:11.252Z,8.87
2023-03-18T06:47:41.074Z,8.57
2023-03-18T06:50:09.801Z,9.13
2023-03-18T06:52:38.407Z,9.63
2023-03-18T06:55:07.968Z,10.03
2023-03-18T06:57:36.190Z,9.40
2023-03-18T07:00:05.147Z,9.00
2023-03-18T07:02:33.546Z,9.00
2023-03-18T07:05:04.388Z,9.67
2023-03-18T07:07:33.068Z,10.17
2023-03-18T07:10:01.113Z,9.43
2023-03-18T07:12:29.137Z,10.23
2023-03-18T07:14:57.370Z,11.07
2023-03-18T07:17:25.459Z,10.50
2023-03-18T07:19:53.480Z,10.33
2023-03-18T07:22:23.319Z,10.63
2023-03-18T07:24:52.437Z,10.73
2023-03-18T07:27:20.707Z,10.57
2023-03-18T07:29:48.724Z,10.53
2023-03-18T07:32:19.142Z,10.83
2023-03-18T07:34:48.003Z,10.70
2023-03-18T07:37:16.881Z,11.53
2023-03-18T07:39:46.768Z,11.77
2023-03-18T07:42:15.365Z,11.40
2023-03-18T07:44:43.516Z,11.87
2023-03-18T07:47:17.511Z,12.00
2023-03-18T07:49:46.072Z,12.67
2023-03-18T07:52:14.108Z,12.30
2023-03-18T07:54:42.114Z,11.33
2023-03-18T07:57:11.714Z,11.97
2023-03-18T07:59:39.760Z,12.23
2023-03-18T08:02:08.804Z,12.73
2023-03-18T08:04:37.728Z,12.93
2023-03-18T08:07:06.042Z,12.37
2023-03-18T08:09:34.268Z,12.13
2023-03-18T08:12:02.746Z,11.60
2023-03-18T08:14:32.292Z,11.43
2023-03-18T08:17:00.327Z,12.23
2023-03-18T08:19:28.374Z,12.03
2023-03-18T08:21:57.523Z,12.80
2023-03-18T08:24:25.709Z,12.97
2023-03-18T08:26:53.794Z,12.43
2023-03-18T08:29:23.534Z,12.00
2023-03-18T08:31:53.063Z,12.17
2023-03-18T08:34:21.820Z,11.70
2023-03-18T08:36:49.921Z,12.10
2023-03-18T08:39:17.968Z,13.03
2023-03-18T08:41:45.998Z,11.57
2023-03-18T08:44:14.104Z,12.03
2023-03-18T08:46:42.342Z,12.17
2023-03-18T08:49:12.402Z,12.90
2023-03-18T08:51:40.511Z,12.43
2023-03-18T08:54:09.302Z,13.20
2023-03-18T08:56:38.193Z,12.53
2023-03-18T08:59:07.098Z,12.50
2023-03-18T09:01:35.182Z,11.97
2023-03-18T09:04:03.389Z,13.07
2023-03-18T09:06:32.922Z,12.63
2023-03-18T09:09:01.018Z,12.73
2023-03-18T09:11:29.147Z,12.43
2023-03-18T09:13:58.379Z,13.93
2023-03-18T09:16:26.757Z,13.83
2023-03-18T09:18:54.997Z,13.57
2023-03-18T09:21:23.083Z,14.57
2023-03-18T09:23:52.780Z,13.40
2023-03-18T09:26:20.922Z,13.07
2023-03-18T09:28:48.968Z,13.97
2023-03-18T09:31:17.075Z,13.90
2023-03-18T09:33:45.185Z,14.27
2023-03-18T09:36:15.641Z,13.50
2023-03-18T09:38:43.818Z,13.90
2023-03-18T09:41:30.076Z,13.80
2023-03-18T09:44:10.656Z,14.57
2023-03-18T09:46:50.378Z,14.20
2023-03-18T09:49:47.715Z,14.30
2023-03-18T09:52:22.696Z,14.33
2023-03-18T09:54:57.620Z,15.07
2023-03-18T09:57:29.883Z,14.97
2023-03-18T10:00:09.187Z,16.20
2023-03-18T10:02:47.230Z,15.77
2023-03-18T10:05:20.608Z,14.30
2023-03-18T10:07:53.920Z,14.20
2023-03-18T10:10:27.258Z,15.43
2023-03-18T10:13:07.646Z,14.97
2023-03-18T10:15:41.496Z,16.00
2023-03-18T10:18:15.302Z,14.27
2023-03-18T10:21:00.284Z,15.30
2023-03-18T10:23:38.478Z,15.63
2023-03-18T10:26:15.154Z,16.60
2023-03-18T10:28:57.553Z,16.47
2023-03-18T10:31:40.945Z,15.57
2023-03-18T10:34:13.261Z,15.10
2023-03-18T10:36:50.376Z,14.93
2023-03-18T10:39:21.174Z,12.57
2023-03-18T10:41:50.997Z,13.33
2023-03-18T10:44:25.859Z,11.70
2023-03-18T10:46:59.910Z,12.73
2023-03-18T10:49:32.848Z,12.87
2023-03-18T10:52:07.771Z,13.27
2023-03-18T10:54:41.392Z,13.10
2023-03-18T10:57:14.174Z,13.90
2023-03-18T10:59:45.389Z,13.30
2023-03-18T11:02:19.587Z,13.40
2023-03-18T11:04:50.673Z,13.20
2023-03-18T11:07:23.733Z,12.93
2023-03-18T11:09:53.321Z,12.67
2023-03-18T11:12:31.443Z,13.87
2023-03-18T11:15:01.652Z,14.10
2023-03-18T11:17:33.676Z,11.67
2023-03-18T11:20:05.779Z,12.53
2023-03-18T11:22:34.821Z,12.30
2023-03-18T11:25:07.147Z,11.63
2023-03-18T11:27:39.165Z,10.90
2023-03-18T11:30:32.694Z,10.77
2023-03-18T11:33:07.215Z,11.27
2023-03-18T11:35:40.425Z,10.97
2023-03-18T11:38:16.668Z,10.47
2023-03-18T11:40:44.852Z,9.53
2023-03-18T11:43:19.821Z,9.17
2023-03-18T11:45:53.903Z,9.30
2023-03-18T11:48:31.391Z,8.53
2023-03-18T11:51:13.501Z,8.53
2023-03-18T11:53:52.805Z,9.20
2023-03-18T11:56:28.368Z,9.50
2023-03-18T11:59:21.453Z,10.03
2023-03-18T12:02:00.398Z,9.67
2023-03-18T12:04:57.628Z,9.53
2023-03-18T12:07:48.353Z,8.83
2023-03-18T12:10:25.935Z,8.63
2023-03-18T12:13:08.202Z,8.77
2023-03-18T12:15:48.926Z,9.17
2023-03-18T12:18:34.228Z,9.50
2023-03-18T12:21:08.878Z,8.57
2023-03-18T12:23:51.348Z,8.70
2023-03-18T12:26:24.740Z,8.77
2023-03-18T12:29:09.901Z,8.00
2023-03-18T12:31:50.350Z,8.83
2023-03-18T12:34:35.271Z,7.23
2023-03-18T12:37:16.594Z,7.83
2023-03-18T12:40:12.545Z,7.33
2023-03-18T12:42:56.034Z,8.10
2023-03-18T12:45:29.281Z,7.63
2023-03-18T12:48:04.542Z,8.13
2023-03-18T12:50:38.939Z,7.70
2023-03-18T12:53:16.605Z,8.47
2023-03-18T12:55:48.138Z,8.20
2023-03-18T12:58:19.959Z,6.90
2023-03-18T13:00:54.225Z,6.70
2023-03-18T13:03:32.674Z,6.57
2023-03-18T13:06:10.188Z,7.13
2023-03-18T13:08:55.712Z,6.47
2023-03-18T13:12:01.868Z,7.70
2023-03-18T13:14:41.067Z,6.23
2023-03-18T13:17:12.915Z,6.30
2023-03-18T13:19:42.979Z,7.03
2023-03-18T13:22:32.679Z,6.83
2023-03-18T13:25:08.389Z,7.17
2023-03-18T13:27:48.562Z,8.53
2023-03-18T13:30:25.434Z,11.38
2023-03-18T13:33:10.376Z,11.70
2023-03-18T13:35:56.613Z,11.43
2023-03-18T13:39:16.138Z,10.63
2023-03-18T13:42:03.098Z,10.13
2023-03-18T13:44:37.464Z,10.63
2023-03-18T13:47:09.332Z,11.70
2023-03-18T13:49:39.569Z,11.67
2023-03-18T13:52:24.969Z,11.27
2023-03-18T13:54:54.638Z,10.97
2023-03-18T13:57:57.911Z,12.30
2023-03-18T14:00:33.061Z,11.53
2023-03-18T14:03:17.712Z,11.30
2023-03-18T14:05:47.065Z,10.80
2023-03-18T14:08:42.778Z,11.23
2023-03-18T14:11:45.360Z,11.10
2023-03-18T14:14:56.770Z,11.93
2023-03-18T14:17:58.323Z,14.13
2023-03-18T14:20:39.466Z,13.70
2023-03-18T14:23:37.141Z,13.60
2023-03-18T14:26:10.636Z,12.07
2023-03-18T14:28:46.513Z,12.93
2023-03-18T14:31:48.870Z,12.87
2023-03-18T14:34:28.141Z,12.23
2023-03-18T14:37:29.127Z,12.73
2023-03-18T14:40:14.905Z,12.63
2023-03-18T14:42:53.729Z,11.53
2023-03-18T14:45:28.734Z,11.90
2023-03-18T14:47:59.575Z,11.57
2023-03-18T14:50:36.438Z,11.90
2023-03-18T14:53:10.959Z,11.60
2023-03-18T14:55:40.264Z,12.10
2023-03-18T14:58:12.743Z,11.57
2023-03-18T15:00:43.006Z,11.33
2023-03-18T15:03:18.890Z,10.67
2023-03-18T15:05:47.622Z,10.70
2023-03-18T15:08:19.483Z,11.40
2023-03-18T15:10:49.506Z,11.70
2023-03-18T15:13:20.128Z,13.77
2023-03-18T15:15:54.668Z,14.17
2023-03-18T15:18:26.861Z,13.67
2023-03-18T15:20:58.063Z,16.73
2023-03-18T15:23:32.340Z,15.23
2023-03-18T15:26:00.454Z,14.93
2023-03-18T15:28:30.405Z,15.63
2023-03-18T15:31:02.189Z,14.63
2023-03-18T15:33:35.119Z,15.57
2023-03-18T15:36:07.236Z,15.43
2023-03-18T15:38:35.427Z,15.20
2023-03-18T15:41:05.538Z,14.20
2023-03-18T15:43:42.321Z,14.43
2023-03-18T15:46:19.192Z,16.53
2023-03-18T15:48:54.687Z,15.60
2023-03-18T15:51:38.586Z,14.17
2023-03-18T15:54:16.565Z,12.20
2023-03-18T15:56:46.456Z,12.07
2023-03-18T15:59:17.698Z,12.53
2023-03-18T16:01:48.345Z,12.37
2023-03-18T16:04:18.444Z,12.37
2023-03-18T16:06:46.674Z,11.90
2023-03-18T16:09:17.182Z,12.33
2023-03-18T16:11:47.357Z,11.93
2023-03-18T16:14:17.952Z,15.17
2023-03-18T16:16:47.868Z,12.47
2023-03-18T16:19:25.107Z,13.80
2023-03-18T16:21:53.714Z,13.60
2023-03-18T16:24:22.226Z,12.50
2023-03-18T16:26:50.885Z,12.97
2023-03-18T16:29:25.652Z,13.83
2023-03-18T16:31:55.111Z,13.37
2023-03-18T16:34:23.369Z,12.23
2023-03-18T16:36:53.470Z,13.63
2023-03-18T16:39:24.260Z,13.27
2023-03-18T16:41:53.692Z,13.20
2023-03-18T16:44:23.428Z,12.87
2023-03-18T16:46:55.572Z,11.67
2023-03-18T16:49:25.813Z,12.27
2023-03-18T16:51:53.921Z,12.63
2023-03-18T16:54:24.053Z,12.80
2023-03-18T16:56:53.821Z,12.37
2023-03-18T16:59:22.324Z,12.67
2023-03-18T17:01:50.557Z,13.77
2023-03-18T17:04:25.860Z,11.70
2023-03-18T17:06:54.134Z,11.13
2023-03-18T17:09:23.271Z,13.47
2023-03-18T17:11:52.230Z,11.43
2023-03-18T17:14:30.891Z,11.97
2023-03-18T17:17:02.363Z,11.17
2023-03-18T17:19:31.872Z,11.57
2023-03-18T17:21:59.907Z,12.33
2023-03-18T17:24:27.920Z,14.70
2023-03-18T17:26:56.010Z,13.80
2023-03-18T17:29:26.289Z,12.30
2023-03-18T17:31:57.717Z,12.97
2023-03-18T17:34:25.776Z,14.50
2023-03-18T17:36:56.530Z,13.53
2023-03-18T17:39:24.509Z,13.20
2023-03-18T17:41:52.565Z,13.33
2023-03-18T17:44:26.662Z,13.37
2023-03-18T17:46:57.553Z,13.10
2023-03-18T17:49:27.671Z,12.30
2023-03-18T17:51:57.739Z,12.93
2023-03-18T17:54:28.111Z,12.30
2023-03-18T17:56:56.196Z,11.80
2023-03-18T17:59:24.268Z,12.63
2023-03-18T18:01:52.674Z,13.57
2023-03-18T18:04:23.035Z,14.03
2023-03-18T18:06:51.069Z,13.63
2023-03-18T18:09:21.489Z,14.10
2023-03-18T18:11:50.994Z,13.97
2023-03-18T18:14:23.232Z,14.77
2023-03-18T18:16:51.649Z,14.73
2023-03-18T18:19:19.686Z,14.00
2023-03-18T18:21:49.428Z,15.40
2023-03-18T18:24:23.472Z,14.53
2023-03-18T18:26:51.613Z,14.83
2023-03-18T18:29:22.869Z,14.63
2023-03-18T18:31:51.495Z,15.80
2023-03-18T18:34:20.157Z,15.30
2023-03-18T18:36:48.743Z,13.67
2023-03-18T18:39:16.827Z,14.43
2023-03-18T18:41:47.441Z,14.50
2023-03-18T18:44:15.827Z,14.87
2023-03-18T18:46:43.890Z,15.60
2023-03-18T18:49:18.529Z,16.23
2023-03-18T18:51:46.728Z,16.37
2023-03-18T18:54:15.214Z,16.27
2023-03-18T18:56:43.779Z,15.40
2023-03-18T18:59:24.349Z,15.70
2023-03-18T19:01:52.469Z,15.93
2023-03-18T19:04:22.843Z,17.20
2023-03-18T19:06:52.289Z,18.97
2023-03-18T19:09:23.672Z,18.47
2023-03-18T19:11:52.196Z,19.00
2023-03-18T19:14:24.557Z,19.43
2023-03-18T19:16:53.906Z,19.93
2023-03-18T19:19:25.196Z,20.50
2023-03-18T19:21:53.197Z,21.17
2023-03-18T19:24:30.587Z,20.77
2023-03-18T19:27:01.474Z,20.50
2023-03-18T19:29:32.565Z,20.03
2023-03-18T19:32:01.352Z,20.53
2023-03-18T19:34:32.162Z,20.90
2023-03-18T19:37:02.579Z,20.70
2023-03-18T19:39:32.061Z,19.40
2023-03-18T19:42:00.228Z,19.63
2023-03-18T19:44:28.315Z,19.80
2023-03-18T19:47:01.109Z,19.70
2023-03-18T19:49:32.840Z,19.03
2023-03-18T19:52:01.103Z,19.63
2023-03-18T19:54:31.582Z,20.83
2023-03-18T19:57:01.375Z,21.60
2023-03-18T19:59:37.873Z,20.23
2023-03-18T20:02:18.443Z,20.93
2023-03-18T20:04:47.816Z,20.43
2023-03-18T20:07:16.250Z,21.57
2023-03-18T20:09:44.424Z,20.40
2023-03-18T20:12:22.152Z,22.77
2023-03-18T20:14:50.220Z,21.73
2023-03-18T20:17:37.082Z,21.40
2023-03-18T20:20:06.275Z,22.23
2023-03-18T20:22:37.347Z,23.10
2023-03-18T20:25:08.366Z,23.60
2023-03-18T20:27:36.424Z,23.37
2023-03-18T20:30:21.689Z,23.10
2023-03-18T20:32:51.362Z,24.17
2023-03-18T20:35:19.668Z,22.13
2023-03-18T20:37:48.198Z,21.60
2023-03-18T20:40:22.727Z,22.50
2023-03-18T20:42:52.655Z,21.13
2023-03-18T20:45:22.314Z,21.37
2023-03-18T20:47:51.924Z,21.63
2023-03-18T20:50:21.940Z,22.67
2023-03-18T20:52:50.692Z,23.20
2023-03-18T20:55:25.270Z,23.03
2023-03-18T20:57:54.672Z,22.47
2023-03-18T21:00:24.786Z,23.83
2023-03-18T21:02:56.315Z,22.57
2023-03-18T21:05:25.127Z,21.97
2023-03-18T21:07:53.633Z,22.90
2023-03-18T21:10:23.467Z,24.23
2023-03-18T21:12:51.686Z,23.73
2023-03-18T21:15:21.439Z,23.33
2023-03-18T21:17:50.152Z,23.47
2023-03-18T21:20:22.898Z,23.47
2023-03-18T21:22:52.134Z,23.30
2023-03-18T21:25:22.066Z,23.33
2023-03-18T21:27:50.799Z,23.20
2023-03-18T21:30:21.468Z,23.60
2023-03-18T21:32:50.500Z,24.37
2023-03-18T21:35:21.905Z,23.97
2023-03-18T21:37:50.680Z,24.50
2023-03-18T21:40:21.585Z,23.77
2023-03-18T21:42:50.057Z,23.97
2023-03-18T21:45:20.466Z,23.63
2023-03-18T21:47:48.569Z,23.00
2023-03-18T21:50:23.928Z,24.50
2023-03-18T21:52:52.828Z,23.67
2023-03-18T21:55:21.985Z,24.63
2023-03-18T21:57:50.001Z,22.30
2023-03-18T22:00:20.424Z,24.33
2023-03-18T22:02:49.254Z,25.60
2023-03-18T22:05:19.332Z,26.10
2023-03-18T22:07:50.441Z,26.03
2023-03-18T22:10:21.556Z,24.93
2023-03-18T22:12:50.054Z,25.57
2023-03-18T22:15:38.258Z,28.93
2023-03-18T22:18:07.296Z,26.83
2023-03-18T22:20:36.442Z,27.40
2023-03-18T22:23:17.299Z,27.33
2023-03-18T22:25:47.186Z,26.90
2023-03-18T22:28:15.473Z,27.33
2023-03-18T22:30:46.036Z,30.87
2023-03-18T22:33:20.332Z,28.90
2023-03-18T22:35:48.748Z,27.87
2023-03-18T22:38:20.267Z,27.20
2023-03-18T22:40:50.532Z,24.37
2023-03-18T22:43:30.914Z,25.23
2023-03-18T22:46:00.490Z,25.10
2023-03-18T22:48:29.129Z,23.67
2023-03-18T22:51:00.072Z,24.50
2023-03-18T22:53:31.857Z,24.27
2023-03-18T22:56:06.636Z,34.47
2023-03-18T22:58:34.701Z,34.13
2023-03-18T23:01:03.635Z,26.93
2023-03-18T23:03:34.348Z,26.33
2023-03-18T23:06:03.811Z,24.53
2023-03-18T23:08:33.210Z,23.53
2023-03-18T23:11:02.577Z,24.40
2023-03-18T23:13:34.437Z,23.13
2023-03-18T23:16:04.349Z,23.03
2023-03-18T23:18:32.744Z,22.67
2023-03-18T23:21:01.658Z,20.77
2023-03-18T23:23:30.403Z,21.13
2023-03-18T23:25:59.789Z,20.60
2023-03-18T23:28:27.836Z,20.37
2023-03-18T23:30:55.842Z,19.47
2023-03-18T23:33:23.936Z,18.80
2023-03-18T23:35:51.988Z,18.97
2023-03-18T23:38:20.057Z,17.03
2023-03-18T23:40:48.078Z,16.77
2023-03-18T23:43:17.461Z,17.47
2023-03-18T23:45:45.746Z,16.40
2023-03-18T23:48:13.836Z,17.10
2023-03-18T23:50:41.825Z,17.17
2023-03-18T23:53:09.864Z,17.20
2023-03-18T23:55:38.076Z,16.80
2023-03-18T23:58:06.306Z,17.23
